Latest Weather Observations for Port Fairy

IDV60801

Issued at 9:12 pm EST Thursday 20 June 2019 (issued every 10 minutes, with the page automatically refreshed every 10 minutes)

About weather observations | Map of weather stations | Latest weather observations for VIC | Other Formats
Station Details ID: 090175 Name: PORT FAIRY AWS Lat: -38.39 Lon: 142.23 Height: 10.0 m
Data from the previous 72 hours. | See also: Recent months at Port Fairy
Date/Time
EST
Temp
°C
App
Temp
°C
Dew
Point
°C
Rel
Hum
%
Delta-T
°C
Wind Press
QNH
hPa
Press
MSL
hPa
Rain since
9am
mm
Dir  Spd
km/h
Gust
km/h
Spd
kts
Gust
kts
20/09:00pm 10.6 7.0 5.2 69 2.4 SSW 13 20 7 11 1027.8 1027.9 0.6
20/08:30pm 10.7 6.7 5.0 68 2.6 SSW 15 20 8 11 1027.9 1028.0 0.6
20/08:00pm 10.8 6.4 4.9 67 2.7 SSW 17 22 9 12 1027.7 1027.8 0.6
20/07:30pm 10.8 7.0 5.6 70 2.4 SSW 15 22 8 12 1027.6 1027.7 0.6
20/07:00pm 10.5 7.0 5.3 70 2.4 S 13 22 7 12 1027.3 1027.4 0.6
20/06:30pm 10.3 6.3 4.9 69 2.4 SSW 15 28 8 15 1027.0 1027.1 0.6
20/06:00pm 10.8 6.8 4.9 67 2.7 SSW 15 20 8 11 1026.6 1026.7 0.6
20/05:30pm 10.7 7.1 5.0 68 2.6 SSW 13 19 7 10 1026.5 1026.6 0.6
20/05:00pm 10.7 7.2 5.3 69 2.4 SSW 13 20 7 11 1026.3 1026.4 0.6
20/04:30pm 10.8 6.8 5.1 68 2.6 SSW 15 20 8 11 1026.1 1026.2 0.6
20/04:00pm 10.8 8.1 5.8 71 2.3 SSE 9 13 5 7 1025.9 1026.0 0.6
20/03:30pm 11.4 8.0 5.7 68 2.6 SSE 13 24 7 13 1025.9 1026.0 0.6
20/03:00pm 10.5 6.3 5.7 72 2.2 SSE 17 22 9 12 1025.8 1025.9 0.6
20/02:30pm 11.4 7.6 5.9 69 2.6 S 15 22 8 12 1025.6 1025.7 0.6
20/02:00pm 11.4 8.3 7.1 75 2.0 WSW 13 19 7 10 1025.8 1025.9 0.6
20/01:30pm 10.6 9.3 7.8 83 1.4 W 4 13 2 7 1026.0 1026.1 0.6
20/01:00pm 8.7 6.9 5.3 79 1.5 NNE 4 6 2 3 1026.4 1026.5 0.6
20/12:30pm 9.4 6.7 5.4 76 1.8 ESE 9 33 5 18 1026.7 1026.8 0.0
20/12:00pm 12.2 10.1 9.9 86 1.2 WNW 11 17 6 9 1026.8 1026.9 0.0
20/11:30am 11.2 9.4 9.6 90 0.8 WNW 9 15 5 8 1027.1 1027.2 0.0
20/11:00am 9.8 7.8 8.6 92 0.6 W 9 13 5 7 1027.3 1027.4 0.0
20/10:30am 9.8 8.2 8.9 94 0.4 NW 7 11 4 6 1027.3 1027.4 0.0
20/10:00am 8.7 6.9 7.9 95 0.4 WNW 7 11 4 6 1027.1 1027.2 0.0
20/09:30am 8.1 6.1 7.3 95 0.4 NW 7 11 4 6 1027.0 1027.1 0.0
20/09:00am 7.2 5.6 6.5 95 0.3 N 4 7 2 4 1027.0 1027.1 2.8
20/08:30am 6.4 4.3 5.7 95 0.3 N 6 7 3 4 1026.9 1027.0 2.8
20/08:00am 6.2 3.9 5.5 95 0.3 NW 7 13 4 7 1026.8 1026.9 2.8
20/07:30am 6.3 3.9 5.4 94 0.4 NW 7 11 4 6 1026.7 1026.8 2.8
20/07:00am 6.6 4.9 5.7 94 0.4 NW 4 9 2 5 1026.6 1026.7 2.8
20/06:30am 6.5 4.7 5.6 94 0.4 NW 4 4 2 2 1026.4 1026.5 2.4
20/06:00am 6.6 4.5 5.7 94 0.4 NW 6 6 3 3 1026.3 1026.4 2.4
20/05:30am 6.6 4.9 5.7 94 0.4 NW 4 6 2 3 1026.3 1026.4 2.4
20/05:00am 6.6 4.9 5.7 94 0.4 NW 4 6 2 3 1026.3 1026.4 2.4
20/04:30am 6.8 5.1 5.9 94 0.4 NW 4 6 2 3 1026.2 1026.3 2.4
20/04:00am 6.8 5.9 5.9 94 0.4 CALM 0 0 0 0 1026.4 1026.5 2.4
20/03:30am 6.8 4.7 5.9 94 0.4 WNW 6 6 3 3 1026.6 1026.7 2.4
20/03:00am 6.9 4.8 5.8 93 0.5 NW 6 9 3 5 1026.6 1026.7 2.4
20/02:30am 7.3 6.0 6.2 93 0.5 ENE 2 2 1 1 1026.4 1026.5 2.4
20/02:00am 7.2 5.9 6.1 93 0.5 N 2 4 1 2 1026.5 1026.6 2.4
20/01:30am 7.4 5.8 6.3 93 0.5 NNW 4 6 2 3 1026.5 1026.6 2.4
20/01:00am 7.5 5.5 6.4 93 0.5 NNE 6 6 3 3 1026.5 1026.6 2.2
20/12:30am 7.5 5.9 6.4 93 0.5 NW 4 4 2 2 1026.8 1026.9 2.2
20/12:00am 7.5 5.5 6.3 92 0.5 W 6 7 3 4 1026.9 1027.0 1.8
 
Date/Time
EST
Temp
°C
App
Temp
°C
Dew
Point
°C
Rel
Hum
%
Delta-T
°C
Wind Press
QNH
hPa
Press
MSL
hPa
Rain since
9am
mm
Dir  Spd
km/h
Gust
km/h
Spd
kts
Gust
kts
19/11:30pm 7.0 5.3 5.8 92 0.5 WNW 4 6 2 3 1026.9 1027.0 1.6
19/11:00pm 7.2 4.9 5.8 91 0.6 NW 7 11 4 6 1026.9 1027.0 1.6
19/10:30pm 7.9 6.0 6.5 91 0.6 WNW 6 9 3 5 1027.0 1027.1 1.2
19/10:00pm 7.8 6.2 6.4 91 0.6 NNW 4 7 2 4 1027.0 1027.1 1.2
19/09:30pm 7.7 5.7 6.2 90 0.7 NW 6 9 3 5 1027.0 1027.1 1.2
19/09:00pm 7.8 5.8 6.3 90 0.7 NNW 6 7 3 4 1027.0 1027.1 1.2
19/08:30pm 8.0 6.4 6.3 89 0.8 NNW 4 7 2 4 1027.0 1027.1 1.2
19/08:00pm 8.3 7.1 6.4 88 0.9 WNW 2 6 1 3 1027.1 1027.2 1.2
19/07:30pm 8.4 6.2 6.2 86 1.0 NW 7 11 4 6 1027.1 1027.2 1.0
19/07:00pm 8.4 6.3 5.9 84 1.1 N 6 9 3 5 1026.8 1026.9 1.0
19/06:30pm 8.7 7.0 5.8 82 1.3 N 4 7 2 4 1026.7 1026.8 1.0
19/06:00pm 9.0 6.9 5.7 80 1.5 SE 6 13 3 7 1026.7 1026.8 0.8
19/05:30pm 8.8 6.9 5.0 77 1.7 W 4 6 2 3 1026.5 1026.6 0.8
19/05:00pm 9.6 7.8 5.4 75 1.9 SW 4 7 2 4 1026.5 1026.6 0.8
19/04:30pm 10.7 8.8 6.5 75 2.0 SSW 6 9 3 5 1026.6 1026.7 0.8
19/04:00pm 10.3 8.4 6.5 77 1.8 SSE 6 9 3 5 1026.5 1026.6 0.8
19/03:30pm 11.1 8.7 7.2 77 1.9 SSW 9 11 5 6 1026.5 1026.6 0.8
19/03:00pm 10.4 7.9 6.7 78 1.7 SW 9 13 5 7 1026.6 1026.7 0.8
19/02:30pm 11.5 9.8 6.0 69 2.6 SSE 4 9 2 5 1026.6 1026.7 0.0
19/02:00pm 11.7 9.3 5.1 64 3.0 S 7 13 4 7 1026.5 1026.6 0.0
19/01:30pm 12.4 10.1 5.8 64 3.1 SW 7 13 4 7 1026.7 1026.8 0.0
19/01:00pm 12.0 10.0 6.3 68 2.7 SSE 6 11 3 6 1026.9 1027.0 0.0
19/12:30pm 11.7 8.8 6.4 70 2.5 SSE 11 17 6 9 1027.1 1027.2 0.0
19/12:00pm 11.9 8.6 6.6 70 2.5 SSE 13 19 7 10 1027.3 1027.4 0.0
19/11:30am 11.4 9.5 6.9 74 2.1 W 6 11 3 6 1027.6 1027.7 0.0
19/11:00am 11.9 9.7 8.0 77 1.9 NW 9 15 5 8 1027.6 1027.7 0.0
19/10:30am 10.5 8.9 8.1 85 1.2 NW 6 7 3 4 1027.5 1027.6 0.0
19/10:00am 8.7 6.6 6.8 88 0.9 NW 7 11 4 6 1027.3 1027.4 0.0
19/09:30am 7.1 4.9 5.3 88 0.8 NW 6 9 3 5 1027.1 1027.2 0.0
19/09:00am 5.8 3.1 3.6 86 0.9 NNW 7 9 4 5 1026.9 1027.0 4.6
19/08:30am 5.8 2.6 3.1 83 1.1 NNW 9 17 5 9 1026.5 1026.6 4.6
19/08:00am 6.6 4.4 3.2 79 1.4 NW 4 7 2 4 1026.2 1026.3 4.6
19/07:30am 9.8 6.3 5.6 75 1.9 S 13 19 7 10 1025.8 1025.9 4.6
19/07:00am 8.7 7.2 5.1 78 1.6 SW 2 15 1 8 1025.5 1025.6 4.6
19/06:30am 9.5 6.4 5.5 76 1.8 S 11 17 6 9 1025.3 1025.3 4.4
19/06:00am 8.6 4.9 4.6 76 1.8 WSW 13 22 7 12 1025.0 1025.0 4.4
19/05:30am 10.0 5.3 5.2 72 2.2 SW 19 28 10 15 1024.7 1024.7 4.4
19/05:00am 10.2 5.7 4.1 66 2.7 SSW 17 22 9 12 1024.6 1024.6 4.4
19/04:30am 10.3 5.5 4.9 69 2.4 SSW 19 26 10 14 1024.5 1024.5 4.4
19/04:00am 10.4 5.1 5.2 70 2.4 SSW 22 32 12 17 1024.4 1024.4 4.4
19/03:30am 10.4 5.5 4.3 66 2.7 SSW 19 26 10 14 1024.3 1024.3 4.4
19/03:00am 10.2 6.2 5.0 70 2.3 S 15 24 8 13 1024.4 1024.4 4.4
19/02:30am 10.8 5.9 5.3 69 2.5 SSW 20 33 11 18 1024.5 1024.5 4.4
19/02:00am 10.7 5.1 3.7 62 3.1 SSW 22 30 12 16 1024.1 1024.1 4.4
19/01:30am 10.6 5.3 5.2 69 2.5 S 22 30 12 16 1024.0 1024.0 4.4
19/01:00am 10.7 5.7 4.6 66 2.7 SSW 20 30 11 16 1024.0 1024.0 4.4
19/12:30am 10.5 5.1 4.6 67 2.6 SSW 22 32 12 17 1024.1 1024.1 4.4
19/12:00am 10.4 4.8 3.7 63 2.9 SW 22 32 12 17 1024.2 1024.2 4.4
 
Date/Time
EST
Temp
°C
App
Temp
°C
Dew
Point
°C
Rel
Hum
%
Delta-T
°C
Wind Press
QNH
hPa
Press
MSL
hPa
Rain since
9am
mm
Dir  Spd
km/h
Gust
km/h
Spd
kts
Gust
kts
18/11:30pm 10.4 4.1 3.7 63 2.9 SW 26 35 14 19 1024.3 1024.3 4.4
18/11:00pm 10.3 4.2 4.7 68 2.5 SSW 26 43 14 23 1024.2 1024.2 4.4
18/10:30pm 10.8 4.6 4.5 65 2.8 SSW 26 37 14 20 1023.8 1023.8 4.4
18/10:00pm 10.6 4.6 5.4 70 2.4 SSW 26 35 14 19 1023.7 1023.7 4.4
18/09:30pm 9.6 4.7 5.2 74 2.0 WSW 20 30 11 16 1023.6 1023.6 4.4
18/09:00pm 10.7 5.4 4.8 67 2.7 SSW 22 35 12 19 1023.4 1023.4 4.4
18/08:30pm 10.4 5.3 5.8 73 2.1 SSW 22 33 12 18 1023.3 1023.3 4.4
18/08:00pm 10.2 4.1 5.0 70 2.3 SSW 26 37 14 20 1023.2 1023.2 4.4
18/07:30pm 10.6 4.9 4.9 68 2.6 SSW 24 35 13 19 1022.7 1022.7 4.4
18/07:00pm 10.4 4.5 5.8 73 2.1 SSW 26 35 14 19 1022.7 1022.7 4.4
18/06:30pm 10.5 4.2 5.5 71 2.3 SSW 28 35 15 19 1022.4 1022.4 4.4
18/06:00pm 10.1 3.4 5.7 74 2.0 SSW 30 41 16 22 1022.0 1022.0 4.4
18/05:30pm 10.3 3.4 6.6 78 1.7 SSW 32 43 17 23 1021.6 1021.6 4.2
18/05:07pm 9.6 5.5 6.3 80 1.5 SSW 17 35 9 19 1021.5 1021.5 4.2
18/05:00pm 8.8 6.0 5.2 78 1.6 WSW 9 17 5 9 1021.4 1021.4 4.2
18/04:30pm 8.9 1.1 4.7 75 1.9 SW 35 56 19 30 1021.8 1021.8 3.8
18/04:11pm 11.5 5.0 4.9 64 3.0 SW 28 48 15 26 1021.0 1021.0 3.4
18/04:00pm 11.7 5.8 5.8 67 2.7 SW 26 37 14 20 1020.8 1020.8 3.4
18/03:30pm 11.8 5.4 5.0 63 3.1 SSW 28 41 15 22 1020.4 1020.4 3.4
18/03:00pm 12.2 5.7 6.3 67 2.8 SW 30 41 16 22 1020.3 1020.3 3.4
18/02:30pm 12.3 6.4 5.9 65 3.0 SW 26 37 14 20 1020.0 1020.0 3.4
18/02:00pm 12.1 5.6 6.6 69 2.6 SW 30 39 16 21 1019.9 1019.9 3.4
18/01:30pm 11.5 3.7 4.7 63 3.1 SW 35 44 19 24 1019.6 1019.6 3.4
18/01:00pm 11.1 4.3 5.0 66 2.8 SSW 30 39 16 21 1019.5 1019.5 3.4
18/12:30pm 11.4 4.9 6.7 73 2.2 SSW 30 43 16 23 1019.6 1019.6 3.4
18/12:00pm 10.1 5.9 8.2 88 0.9 SW 20 39 11 21 1019.4 1019.4 3.4
18/11:30am 9.2 6.2 7.5 89 0.8 SW 13 22 7 12 1019.5 1019.5 3.4
18/11:00am 8.1 3.0 6.2 88 0.9 SSW 22 39 12 21 1019.6 1019.6 2.6
18/10:39am 9.0 3.2 6.4 84 1.2 WSW 26 54 14 29 1019.3 1019.3 0.2
18/10:30am 9.4 4.1 6.7 83 1.3 SSW 24 37 13 20 1019.5 1019.5 0.2
18/10:00am 10.5 2.0 6.8 78 1.7 SSW 41 61 22 33 1018.6 1018.6 0.0
18/09:56am 11.3 3.5 6.8 74 2.1 SSW 37 57 20 31 1018.5 1018.5 0.0
18/09:30am 11.2 3.7 6.5 73 2.2 SSW 35 46 19 25 1017.8 1017.8 0.0
18/09:00am 10.9 3.3 7.4 79 1.7 SSW 37 50 20 27 1017.1 1017.1 1.2
18/08:32am 11.6 4.1 7.9 78 1.8 SSW 37 59 20 32 1016.5 1016.5 1.0
18/08:30am 11.3 3.7 7.4 77 1.9 SSW 37 48 20 26 1016.5 1016.5 1.0
18/08:00am 11.2 3.6 7.7 79 1.7 SSW 37 50 20 27 1015.9 1015.9 1.0
18/07:30am 10.9 3.2 8.8 87 1.0 SSW 39 52 21 28 1015.4 1015.4 1.0
18/07:00am 10.3 1.8 8.7 90 0.8 SW 43 57 23 31 1015.1 1015.1 1.0
18/06:50am 10.6 3.8 9.2 91 0.7 SW 35 59 19 32 1014.9 1014.9 1.0
18/06:37am 10.9 5.4 9.3 90 0.8 WSW 28 52 15 28 1014.5 1014.5 0.8
18/06:30am 10.4 6.0 8.8 90 0.8 WSW 22 33 12 18 1014.3 1014.3 0.8
18/06:08am 10.5 4.3 9.3 92 0.6 WSW 32 54 17 29 1014.1 1014.1 0.8
18/06:00am 10.6 5.6 9.4 92 0.6 WSW 26 37 14 20 1014.0 1014.0 0.8
18/05:30am 9.8 6.6 8.6 92 0.6 NW 15 26 8 14 1013.6 1013.6 0.4
18/05:00am 9.7 6.1 8.3 91 0.7 NW 17 24 9 13 1013.3 1013.3 0.4
18/04:30am 9.7 6.1 8.3 91 0.7 NNW 17 28 9 15 1013.3 1013.3 0.2
18/04:00am 10.0 6.4 8.4 90 0.8 NNW 17 28 9 15 1013.7 1013.7 0.2
18/03:30am 10.1 6.0 8.5 90 0.8 NNW 20 33 11 18 1013.7 1013.7 0.2
18/03:00am 10.2 6.2 8.3 88 0.9 NNW 19 28 10 15 1013.7 1013.7 0.2
18/02:30am 10.6 5.9 7.8 83 1.4 NNW 22 35 12 19 1013.8 1013.8 0.0
18/02:00am 11.5 7.6 7.2 75 2.1 NNW 17 26 9 14 1013.7 1013.7 0.0
18/01:30am 11.3 7.0 7.2 76 2.0 NNW 19 28 10 15 1013.7 1013.7 0.0
18/01:00am 11.1 7.3 7.4 78 1.8 NNW 17 28 9 15 1013.9 1013.9 0.0
18/12:30am 10.9 7.9 7.6 80 1.6 NNW 13 22 7 12 1014.3 1014.3 0.0
18/12:00am 10.9 7.5 7.6 80 1.6 N 15 22 8 12 1014.6 1014.6 0.0
 
Date/Time
EST
Temp
°C
App
Temp
°C
Dew
Point
°C
Rel
Hum
%
Delta-T
°C
Wind Press
QNH
hPa
Press
MSL
hPa
Rain since
9am
mm
Dir  Spd
km/h
Gust
km/h
Spd
kts
Gust
kts
17/11:30pm 10.9 7.9 7.6 80 1.6 NNW 13 19 7 10 1015.0 1015.0 0.0
17/11:00pm 11.3 8.0 8.2 81 1.5 NNW 15 24 8 13 1015.2 1015.2 0.0
17/10:30pm 10.7 8.2 8.1 84 1.3 N 11 19 6 10 1015.6 1015.6 0.0
17/10:00pm 10.0 7.7 7.6 85 1.1 N 9 15 5 8 1015.8 1015.8 0.0
17/09:30pm 9.9 7.9 7.3 84 1.2 N 7 11 4 6 1016.0 1016.0 0.0

Other formats

Comma delimited format used in spreadsheet applications
http://www.bom.gov.au/fwo/IDV60801/IDV60801.94830.axf

JavaScript Object Notation format (JSON) in row-major order
http://www.bom.gov.au/fwo/IDV60801/IDV60801.94830.json

Data quality

Most of these data are generated automatically and are frequently updated. Quality checks on data are not normally performed. It is possible for incorrect values to appear. Refer to information at About Latest Weather Observations and please check the disclaimer before using these data.